Time;durP1;ratioP1;P1;durP2;ratioP2;P2;SDS_P1;SDS_P2;PMS_P1;PMS_P2;Temp;Humidity;BMP_temperature;BMP_pressure;BME280_temperature;BME280_humidity;BME280_pressure;Samples;Min_cycle;Max_cycle;Signal;HPM_P1;HPM_P2
2022/03/24 00:00:57;;;;;;;0.10;0.10;;;4.90;99.90;226.50;231333.00;;;;5072614;28;20275;-72
2022/03/24 00:03:25;;;;;;;0.10;0.10;;;4.90;25.70;226.50;231333.00;;;;5072478;28;20194;-72
2022/03/24 00:05:54;;;;;;;0.10;0.10;;;4.90;93.00;226.50;231333.00;;;;5072576;28;20576;-72
2022/03/24 00:08:22;;;;;;;0.10;0.10;;;5.00;1.00;226.50;231333.00;;;;5075125;28;20193;-72
2022/03/24 00:10:52;;;;;;;0.10;0.10;;;4.80;1.00;226.50;231333.00;;;;5075219;28;20193;-72
2022/03/24 00:13:20;;;;;;;0.10;0.10;;;4.60;99.90;226.50;231333.00;;;;5075543;28;20221;-73
2022/03/24 00:15:48;;;;;;;0.10;0.10;;;4.50;1.00;226.50;231333.00;;;;5079148;28;20216;-74
2022/03/24 00:18:16;;;;;;;0.10;0.10;;;4.40;1.00;226.50;231333.00;;;;5081317;28;20190;-73
2022/03/24 00:20:44;;;;;;;0.03;0.03;;;4.50;1.00;226.50;231333.00;;;;5081306;28;20230;-72
2022/03/24 00:23:12;;;;;;;0.10;0.10;;;4.30;1.00;226.50;231333.00;;;;5077806;28;20210;-72
2022/03/24 00:25:40;;;;;;;0.10;0.10;;;4.20;1.00;226.50;231333.00;;;;5082141;28;20198;-72
2022/03/24 00:28:09;;;;;;;0.10;0.10;;;4.20;1.00;226.50;231333.00;;;;5082580;28;20193;-72
2022/03/24 00:30:37;;;;;;;0.10;0.10;;;4.30;1.00;226.50;231333.00;;;;5083657;28;20198;-72
2022/03/24 00:33:05;;;;;;;0.10;0.10;;;4.00;99.90;226.50;231333.00;;;;5096734;28;20221;-72
2022/03/24 00:35:34;;;;;;;0.10;0.10;;;4.10;48.90;226.50;231333.00;;;;5093194;28;20648;-72
2022/03/24 00:38:02;;;;;;;0.10;0.10;;;4.20;1.00;226.50;231333.00;;;;5074137;28;20389;-73
2022/03/24 00:40:30;;;;;;;0.00;0.00;;;4.10;1.00;226.50;231333.00;;;;5074211;28;20214;-75
2022/03/24 00:42:59;;;;;;;0.10;0.10;;;4.20;1.00;226.50;231333.00;;;;5076470;28;20222;-76
2022/03/24 00:45:29;;;;;;;0.10;0.10;;;4.00;28.30;226.50;231333.00;;;;5077030;28;20232;-75
2022/03/24 00:47:57;;;;;;;0.10;0.10;;;3.80;99.90;226.50;231333.00;;;;5077161;28;20204;-75
2022/03/24 00:50:25;;;;;;;0.10;0.10;;;3.80;99.90;226.50;231333.00;;;;5075163;28;20193;-74
2022/03/24 00:52:53;;;;;;;0.10;0.10;;;3.80;1.00;226.50;231333.00;;;;5081830;28;20212;-71
2022/03/24 00:55:21;;;;;;;0.10;0.10;;;3.80;99.90;226.50;231333.00;;;;5077412;28;20201;-70
2022/03/24 00:57:52;;;;;;;0.10;0.10;;;3.70;1.00;226.50;231333.00;;;;5086842;28;20213;-73
2022/03/24 01:00:25;;;;;;;0.10;0.10;;;3.70;1.00;226.50;231333.00;;;;5074759;28;20214;-72
2022/03/24 01:02:57;;;;;;;0.10;0.10;;;3.70;1.00;226.50;231333.00;;;;5070991;28;20225;-72
2022/03/24 01:05:27;;;;;;;0.10;0.10;;;3.60;1.00;226.50;231333.00;;;;5087445;28;20190;-72
2022/03/24 01:07:57;;;;;;;0.10;0.10;;;3.50;1.00;226.50;231333.00;;;;5078379;28;20276;-72
2022/03/24 01:10:25;;;;;;;0.10;0.10;;;3.50;1.00;226.50;231333.00;;;;5073103;28;20221;-72
2022/03/24 01:12:55;;;;;;;0.10;0.10;;;3.40;1.00;226.50;231333.00;;;;5079421;28;20232;-72
2022/03/24 01:15:23;;;;;;;0.10;0.10;;;3.50;1.00;226.50;231333.00;;;;5076392;28;20209;-72
2022/03/24 01:17:52;;;;;;;0.10;0.10;;;3.50;1.00;226.50;231333.00;;;;5077749;28;20198;-72
2022/03/24 01:20:21;;;;;;;0.10;0.10;;;3.30;1.00;226.50;231333.00;;;;5077467;28;20201;-72
2022/03/24 01:22:49;;;;;;;0.10;0.10;;;3.40;1.00;226.50;231333.00;;;;5072759;28;20223;-72
2022/03/24 01:25:17;;;;;;;0.10;0.10;;;3.40;1.00;226.50;231333.00;;;;5075184;28;20197;-75
2022/03/24 01:27:46;;;;;;;0.10;0.10;;;3.30;1.00;226.50;231333.00;;;;5062825;28;20202;-73
2022/03/24 01:30:14;;;;;;;0.10;0.10;;;3.30;1.00;226.50;231333.00;;;;5074261;28;20894;-73
2022/03/24 01:32:43;;;;;;;0.10;0.10;;;3.40;1.00;226.50;231333.00;;;;5092802;28;20263;-72
2022/03/24 01:35:12;;;;;;;0.10;0.10;;;3.30;1.00;226.50;231333.00;;;;5077216;28;20190;-72
2022/03/24 01:37:43;;;;;;;0.10;0.10;;;3.20;1.00;226.50;231333.00;;;;5074846;28;20197;-73
2022/03/24 01:40:14;;;;;;;0.10;0.10;;;3.20;1.00;226.50;231333.00;;;;5075481;28;20205;-73
2022/03/24 01:42:43;;;;;;;0.10;0.10;;;3.20;1.00;226.50;231333.00;;;;5076205;28;20230;-73
2022/03/24 01:45:12;;;;;;;0.10;0.10;;;3.20;1.00;226.50;231333.00;;;;5073226;28;20229;-72
2022/03/24 01:47:40;;;;;;;0.10;0.10;;;3.20;1.00;226.50;231333.00;;;;5072542;28;20655;-72
2022/03/24 01:50:11;;;;;;;0.10;0.10;;;3.20;1.00;226.50;231333.00;;;;5074866;28;20228;-72
2022/03/24 01:52:43;;;;;;;0.10;0.10;;;3.20;1.00;226.50;231333.00;;;;5091004;28;20285;-72
2022/03/24 01:55:13;;;;;;;0.10;0.10;;;3.20;1.00;226.50;231333.00;;;;5074351;28;20625;-72
2022/03/24 01:57:45;;;;;;;0.15;0.15;;;3.20;1.00;226.50;231333.00;;;;5092035;28;20244;-73
2022/03/24 02:00:14;;;;;;;0.10;0.10;;;3.00;1.00;226.50;231333.00;;;;5088973;28;20197;-72
2022/03/24 02:02:44;;;;;;;0.10;0.10;;;2.90;94.60;226.50;231333.00;;;;5073724;28;20247;-73
2022/03/24 02:05:13;;;;;;;0.10;0.10;;;2.90;93.90;226.50;231333.00;;;;5088789;28;20186;-73
2022/03/24 02:07:44;;;;;;;0.10;0.10;;;2.90;99.90;226.50;231333.00;;;;5086379;28;20201;-73
2022/03/24 02:10:12;;;;;;;0.10;0.10;;;3.00;70.90;226.50;231333.00;;;;5087856;28;20197;-73
2022/03/24 02:12:42;;;;;;;0.10;0.10;;;3.00;99.90;226.50;231333.00;;;;5088651;28;20682;-73
2022/03/24 02:15:12;;;;;;;0.10;0.10;;;3.00;43.20;226.50;231333.00;;;;5072130;28;20566;-74
2022/03/24 02:17:41;;;;;;;0.10;0.10;;;3.00;4.30;226.50;231333.00;;;;5074414;28;20190;-74
2022/03/24 02:20:10;;;;;;;0.10;0.10;;;2.90;12.50;226.50;231333.00;;;;5069886;28;20197;-72
2022/03/24 02:22:40;;;;;;;0.10;0.10;;;2.90;50.30;226.50;231333.00;;;;5073960;28;20231;-71
2022/03/24 02:25:09;;;;;;;0.10;0.10;;;2.80;99.90;226.50;231333.00;;;;5075132;28;20326;-73
2022/03/24 02:27:37;;;;;;;0.10;0.10;;;2.70;99.90;226.50;231333.00;;;;5069845;28;20578;-72
2022/03/24 02:30:08;;;;;;;0.10;0.10;;;2.80;99.90;226.50;231333.00;;;;5076021;28;20250;-73
2022/03/24 02:32:36;;;;;;;0.10;0.10;;;2.80;99.90;226.50;231333.00;;;;5076459;28;20579;-73
2022/03/24 02:35:05;;;;;;;0.10;0.10;;;2.60;99.90;226.50;231333.00;;;;5073098;28;20194;-73
2022/03/24 02:37:33;;;;;;;0.10;0.10;;;2.50;99.90;226.50;231333.00;;;;5072738;28;20185;-72
2022/03/24 02:40:04;;;;;;;0.10;0.10;;;2.60;99.90;226.50;231333.00;;;;5072746;28;20612;-72
2022/03/24 02:42:32;;;;;;;0.10;0.10;;;2.70;99.90;226.50;231333.00;;;;5070318;28;20282;-71
2022/03/24 02:45:05;;;;;;;0.10;0.10;;;2.80;99.90;226.50;231333.00;;;;5070922;28;20194;-71
2022/03/24 02:47:33;;;;;;;0.10;0.10;;;2.70;99.90;226.50;231333.00;;;;5070998;28;20201;-70
2022/03/24 02:50:02;;;;;;;0.17;0.17;;;2.60;99.90;226.50;231333.00;;;;5070983;28;20194;-70
2022/03/24 02:52:30;;;;;;;0.10;0.10;;;2.60;99.90;226.50;231333.00;;;;5070803;28;20221;-71
2022/03/24 02:54:58;;;;;;;0.10;0.10;;;2.60;99.90;226.50;231333.00;;;;5071005;28;20205;-71
2022/03/24 02:57:27;;;;;;;0.10;0.10;;;2.50;99.90;226.50;231333.00;;;;5069897;28;20724;-71
2022/03/24 02:59:55;;;;;;;0.10;0.10;;;2.50;99.90;226.50;231333.00;;;;5069505;28;20193;-72
2022/03/24 03:02:23;;;;;;;0.10;0.10;;;2.40;99.90;226.50;231333.00;;;;5069704;28;20218;-72
2022/03/24 03:04:53;;;;;;;0.10;0.10;;;2.50;99.90;226.50;231333.00;;;;5071881;28;20236;-71
2022/03/24 03:07:22;;;;;;;0.10;0.10;;;2.50;99.90;226.50;231333.00;;;;5071533;28;20679;-72
2022/03/24 03:09:51;;;;;;;0.20;0.20;;;2.60;99.90;226.50;231333.00;;;;5073437;28;20582;-70
2022/03/24 03:12:19;;;;;;;0.10;0.10;;;2.40;99.90;226.50;231333.00;;;;5072196;28;20217;-71
2022/03/24 03:14:48;;;;;;;0.10;0.10;;;2.20;99.90;226.50;231333.00;;;;5073745;28;20259;-70
2022/03/24 03:17:17;;;;;;;0.10;0.10;;;2.20;1.00;226.50;231333.00;;;;5070802;28;20193;-70
2022/03/24 03:19:46;;;;;;;0.10;0.10;;;2.10;1.00;226.50;231333.00;;;;5071394;28;20198;-70
2022/03/24 03:22:15;;;;;;;0.10;0.10;;;2.10;1.00;226.50;231333.00;;;;5070675;28;20227;-70
2022/03/24 03:24:44;;;;;;;0.10;0.10;;;2.10;1.00;226.50;231333.00;;;;5071398;28;20337;-71
2022/03/24 03:27:13;;;;;;;0.10;0.10;;;2.10;1.00;226.50;231333.00;;;;5071362;28;20193;-71
2022/03/24 03:29:42;;;;;;;0.10;0.10;;;2.10;1.00;226.50;231333.00;;;;5070860;28;20568;-74
2022/03/24 03:32:12;;;;;;;0.10;0.10;;;2.00;1.00;226.50;231333.00;;;;5067570;28;20217;-71
2022/03/24 03:34:43;;;;;;;0.10;0.10;;;2.00;1.00;226.50;231333.00;;;;5069621;28;20201;-71
2022/03/24 03:37:12;;;;;;;0.10;0.10;;;2.00;1.00;226.50;231333.00;;;;5084496;28;20194;-71
2022/03/24 03:39:40;;;;;;;0.10;0.10;;;2.00;1.00;226.50;231333.00;;;;5061152;28;20205;-71
2022/03/24 03:42:09;;;;;;;0.10;0.10;;;2.00;1.00;226.50;231333.00;;;;5069940;28;20286;-71
2022/03/24 03:44:37;;;;;;;0.10;0.10;;;2.10;1.00;226.50;231333.00;;;;5070871;28;20256;-72
2022/03/24 03:47:06;;;;;;;0.10;0.10;;;2.10;1.00;226.50;231333.00;;;;5069929;28;20205;-72
2022/03/24 03:49:37;;;;;;;0.10;0.10;;;2.10;1.00;226.50;231333.00;;;;5070128;28;20200;-73
2022/03/24 03:52:25;;;;;;;0.10;0.10;;;1.90;1.00;226.50;231333.00;;;;5070107;28;20226;-72
2022/03/24 03:54:53;;;;;;;0.10;0.10;;;1.80;1.00;226.50;231333.00;;;;5070077;28;20185;-71
2022/03/24 03:57:21;;;;;;;0.10;0.10;;;1.70;1.00;226.50;231333.00;;;;5069576;28;20198;-70
2022/03/24 03:59:49;;;;;;;0.20;0.20;;;1.70;1.00;226.50;231333.00;;;;5070187;28;20248;-70
2022/03/24 04:02:18;;;;;;;0.10;0.10;;;1.70;1.00;226.50;231333.00;;;;5067204;28;20566;-72
2022/03/24 04:04:49;;;;;;;0.10;0.10;;;1.70;1.00;226.50;231333.00;;;;5068892;28;20232;-72
2022/03/24 04:07:17;;;;;;;0.20;0.20;;;1.70;1.00;226.50;231333.00;;;;5069665;28;20202;-71
2022/03/24 04:09:45;;;;;;;0.10;0.10;;;1.80;1.00;226.50;231333.00;;;;5069916;28;20675;-71
2022/03/24 04:12:13;;;;;;;0.10;0.10;;;1.80;1.00;226.50;231333.00;;;;5070351;28;20636;-70
2022/03/24 04:14:41;;;;;;;0.10;0.10;;;1.80;1.00;226.50;231333.00;;;;5070118;28;20194;-71
2022/03/24 04:17:09;;;;;;;0.10;0.10;;;1.80;1.00;226.50;231333.00;;;;5071184;28;20240;-71
2022/03/24 04:19:37;;;;;;;0.10;0.10;;;1.80;1.00;226.50;231333.00;;;;5073779;28;20228;-70
2022/03/24 04:22:06;;;;;;;0.10;0.10;;;1.80;1.00;226.50;231333.00;;;;5072942;28;20271;-70
2022/03/24 04:24:35;;;;;;;0.10;0.10;;;1.70;1.00;226.50;231333.00;;;;5073654;28;20596;-70
2022/03/24 04:27:05;;;;;;;0.10;0.10;;;1.60;1.00;226.50;231333.00;;;;5072854;28;20539;-70
2022/03/24 04:29:33;;;;;;;0.10;0.10;;;1.50;1.00;226.50;231333.00;;;;5060407;28;20197;-70
2022/03/24 04:32:01;;;;;;;0.10;0.10;;;1.50;1.00;226.50;231333.00;;;;5073097;28;20218;-70
2022/03/24 04:34:29;;;;;;;0.10;0.10;;;1.50;1.00;226.50;231333.00;;;;5066343;28;20259;-70
2022/03/24 04:36:57;;;;;;;0.17;0.17;;;1.60;1.00;226.50;231333.00;;;;5069067;28;20663;-70
2022/03/24 04:39:26;;;;;;;0.17;0.17;;;1.60;1.00;226.50;231333.00;;;;5070876;28;20257;-70
2022/03/24 04:41:54;;;;;;;0.10;0.10;;;1.60;1.00;226.50;231333.00;;;;5072684;28;20267;-72
2022/03/24 04:44:22;;;;;;;0.10;0.10;;;1.70;1.00;226.50;231333.00;;;;5073333;28;20220;-71
2022/03/24 04:46:50;;;;;;;0.10;0.10;;;1.70;1.00;226.50;231333.00;;;;5067189;28;20612;-71
2022/03/24 04:49:18;;;;;;;0.10;0.10;;;1.80;1.00;226.50;231333.00;;;;5072895;28;20204;-71
2022/03/24 04:51:47;;;;;;;0.10;0.10;;;1.80;1.00;226.50;231333.00;;;;5072663;28;20229;-71
2022/03/24 04:54:15;;;;;;;0.10;0.10;;;1.80;1.00;226.50;231333.00;;;;5072699;28;20201;-70
2022/03/24 04:56:44;;;;;;;0.10;0.10;;;1.80;1.00;226.50;231333.00;;;;5072314;28;20201;-71
2022/03/24 04:59:13;;;;;;;0.10;0.10;;;1.90;1.00;226.50;231333.00;;;;5072360;28;20201;-71
2022/03/24 05:01:41;;;;;;;0.20;0.20;;;1.80;1.00;226.50;231333.00;;;;5070542;28;20213;-71
2022/03/24 05:04:10;;;;;;;0.10;0.10;;;1.70;1.00;226.50;231333.00;;;;5072025;28;20214;-71
2022/03/24 05:06:38;;;;;;;0.10;0.10;;;1.70;1.00;226.50;231333.00;;;;5072155;28;20578;-71
2022/03/24 05:09:06;;;;;;;0.10;0.10;;;1.50;1.00;226.50;231333.00;;;;5087504;28;20193;-71
2022/03/24 05:11:34;;;;;;;0.20;0.20;;;1.50;1.00;226.50;231333.00;;;;5072738;28;20225;-71
2022/03/24 05:14:03;;;;;;;0.10;0.10;;;1.60;1.00;226.50;231333.00;;;;5067897;28;20201;-72
2022/03/24 05:16:31;;;;;;;0.10;0.10;;;1.40;1.00;226.50;231333.00;;;;5063318;28;20619;-71
2022/03/24 05:18:59;;;;;;;0.13;0.13;;;1.20;1.00;226.50;231333.00;;;;5067650;28;20561;-71
2022/03/24 05:21:28;;;;;;;0.10;0.10;;;1.20;1.00;226.50;231333.00;;;;5072757;28;20235;-71
2022/03/24 05:23:56;;;;;;;0.10;0.10;;;1.40;1.00;226.50;231333.00;;;;5070183;28;20217;-71
2022/03/24 05:26:24;;;;;;;0.20;0.20;;;1.40;1.00;226.50;231333.00;;;;5072894;28;20240;-71
2022/03/24 05:28:53;;;;;;;0.10;0.10;;;1.40;1.00;226.50;231333.00;;;;5070538;28;20185;-72
2022/03/24 05:31:23;;;;;;;0.10;0.10;;;1.40;1.00;226.50;231333.00;;;;5071890;28;20605;-71
2022/03/24 05:33:51;;;;;;;0.10;0.10;;;1.40;1.00;226.50;231333.00;;;;5070125;28;20221;-71
2022/03/24 05:36:19;;;;;;;0.17;0.17;;;1.30;1.00;226.50;231333.00;;;;5072323;28;20228;-73
2022/03/24 05:38:47;;;;;;;0.10;0.10;;;1.40;1.00;226.50;231333.00;;;;5070388;28;20255;-71
2022/03/24 05:41:15;;;;;;;0.10;0.10;;;1.40;1.00;226.50;231333.00;;;;5058612;28;20263;-71
2022/03/24 05:44:02;;;;;;;0.10;0.10;;;1.50;1.00;226.50;231333.00;;;;5071639;28;20513;-71
2022/03/24 05:46:44;;;;;;;0.10;0.10;;;1.40;1.00;226.50;231333.00;;;;5072231;28;20224;-71
2022/03/24 05:49:16;;;;;;;0.10;0.10;;;1.30;1.00;226.50;231333.00;;;;5072764;28;20194;-71
2022/03/24 05:52:12;;;;;;;0.10;0.10;;;1.30;1.00;226.50;231333.00;;;;5063919;28;20634;-71
2022/03/24 05:54:40;;;;;;;0.20;0.20;;;1.30;1.00;226.50;231333.00;;;;5071678;28;20217;-71
2022/03/24 05:57:10;;;;;;;0.10;0.10;;;1.10;1.00;226.50;231333.00;;;;5072003;28;20209;-71
2022/03/24 05:59:39;;;;;;;0.10;0.10;;;1.20;1.00;226.50;231333.00;;;;5072209;28;20198;-71
2022/03/24 06:02:08;;;;;;;0.10;0.10;;;1.10;1.00;226.50;231333.00;;;;5070973;28;20214;-72
2022/03/24 06:04:40;;;;;;;0.10;0.10;;;1.10;1.00;226.50;231333.00;;;;5065551;28;20252;-71
2022/03/24 06:07:10;;;;;;;0.10;0.10;;;1.20;1.00;226.50;231333.00;;;;5067226;28;20235;-71
2022/03/24 06:09:38;;;;;;;0.20;0.20;;;1.30;1.00;226.50;231333.00;;;;5065860;28;20193;-71
2022/03/24 06:12:10;;;;;;;0.10;0.10;;;1.50;1.00;226.50;231333.00;;;;5068366;28;20221;-72
2022/03/24 06:14:39;;;;;;;0.17;0.17;;;1.60;1.00;226.50;231333.00;;;;5069323;28;20189;-73
2022/03/24 06:17:09;;;;;;;0.20;0.20;;;1.60;1.00;226.50;231333.00;;;;5071330;28;20193;-71
2022/03/24 06:19:39;;;;;;;0.10;0.10;;;1.70;1.00;226.50;231333.00;;;;5070936;28;20193;-72
2022/03/24 06:22:08;;;;;;;0.10;0.10;;;1.80;1.00;226.50;231333.00;;;;5064766;28;20225;-72
2022/03/24 06:24:36;;;;;;;0.10;0.10;;;1.90;1.00;226.50;231333.00;;;;5066308;28;20259;-71
2022/03/24 06:27:05;;;;;;;0.10;0.10;;;2.00;1.00;226.50;231333.00;;;;5071851;28;20200;-71
2022/03/24 06:29:33;;;;;;;0.20;0.20;;;2.20;1.00;226.50;231333.00;;;;5071917;28;20212;-71
2022/03/24 06:32:01;;;;;;;0.10;0.10;;;2.30;1.00;226.50;231333.00;;;;5071847;28;20235;-71
2022/03/24 06:34:30;;;;;;;0.10;0.10;;;2.50;1.00;226.50;231333.00;;;;5071549;28;20198;-71
2022/03/24 06:36:59;;;;;;;0.10;0.10;;;2.60;1.00;226.50;231333.00;;;;5071229;28;20193;-71
2022/03/24 06:39:26;;;;;;;0.10;0.10;;;2.70;1.00;226.50;231333.00;;;;5064300;28;20192;-71
2022/03/24 06:41:55;;;;;;;0.10;0.10;;;2.90;1.00;226.50;231333.00;;;;5060691;28;20710;-71
2022/03/24 06:44:23;;;;;;;0.10;0.10;;;3.00;99.90;226.50;231333.00;;;;5070304;28;20624;-71
2022/03/24 06:46:51;;;;;;;0.10;0.10;;;3.20;99.90;226.50;231333.00;;;;5071095;28;20212;-71
2022/03/24 06:49:19;;;;;;;0.10;0.10;;;3.20;99.90;226.50;231333.00;;;;5070782;28;20198;-71
2022/03/24 06:51:49;;;;;;;0.10;0.10;;;3.10;99.20;226.50;231333.00;;;;5070704;28;20315;-72
2022/03/24 06:54:17;;;;;;;0.10;0.10;;;3.00;99.90;226.50;231333.00;;;;5067738;28;20193;-72
2022/03/24 06:56:45;;;;;;;0.10;0.10;;;3.10;99.90;226.50;231333.00;;;;5071808;28;20239;-71
2022/03/24 06:59:13;;;;;;;0.10;0.10;;;3.20;99.90;226.50;231333.00;;;;5069586;28;20216;-72
2022/03/24 07:01:42;;;;;;;0.10;0.10;;;3.20;92.00;226.50;231333.00;;;;5071778;28;20213;-72
2022/03/24 07:04:10;;;;;;;0.10;0.10;;;3.30;83.40;226.50;231333.00;;;;5068668;28;20214;-72
2022/03/24 07:06:38;;;;;;;0.10;0.10;;;3.30;93.30;226.50;231333.00;;;;5065106;28;20210;-72
2022/03/24 07:09:08;;;;;;;0.10;0.10;;;3.30;12.30;226.50;231333.00;;;;5071054;28;20192;-72
2022/03/24 07:11:36;;;;;;;0.10;0.10;;;3.40;38.50;226.50;231333.00;;;;5070806;28;20243;-71
2022/03/24 07:14:04;;;;;;;0.10;0.10;;;3.50;1.00;226.50;231333.00;;;;5070472;28;20272;-71
2022/03/24 07:16:33;;;;;;;0.10;0.10;;;3.60;1.00;226.50;231333.00;;;;5067991;28;20310;-72
2022/03/24 07:19:01;;;;;;;0.10;0.10;;;3.70;1.00;226.50;231333.00;;;;5070681;28;20197;-72
2022/03/24 07:21:29;;;;;;;0.10;0.10;;;3.70;1.00;226.50;231333.00;;;;5070101;28;20224;-71
2022/03/24 07:23:57;;;;;;;0.10;0.10;;;3.80;1.00;226.50;231333.00;;;;5085957;28;20209;-72
2022/03/24 07:26:26;;;;;;;0.10;0.10;;;3.90;1.00;226.50;231333.00;;;;5070270;28;20190;-71
2022/03/24 07:28:54;;;;;;;0.10;0.10;;;3.90;1.00;226.50;231333.00;;;;5070321;28;20198;-71
2022/03/24 07:31:26;;;;;;;0.10;0.10;;;4.10;1.00;226.50;231333.00;;;;5069056;28;20269;-71
2022/03/24 07:33:55;;;;;;;0.10;0.10;;;4.20;1.00;226.50;231333.00;;;;5068576;28;20216;-72
2022/03/24 07:36:26;;;;;;;0.10;0.10;;;4.20;1.00;226.50;231333.00;;;;5082376;28;20293;-72
2022/03/24 07:38:58;;;;;;;0.10;0.10;;;4.30;1.00;226.50;231333.00;;;;5070638;28;20202;-72
2022/03/24 07:41:29;;;;;;;0.10;0.10;;;4.40;1.00;226.50;231333.00;;;;5070346;28;20221;-72
2022/03/24 07:43:57;;;;;;;0.10;0.10;;;4.50;99.90;226.50;231333.00;;;;5069635;28;20190;-72
2022/03/24 07:46:25;;;;;;;0.10;0.10;;;4.70;99.90;226.50;231333.00;;;;5062197;28;20197;-72
2022/03/24 07:48:53;;;;;;;0.10;0.10;;;4.80;4.80;226.50;231333.00;;;;5062674;28;20194;-72
2022/03/24 07:51:21;;;;;;;0.10;0.10;;;4.90;1.00;226.50;231333.00;;;;5069479;28;20221;-72
2022/03/24 07:54:02;;;;;;;0.10;0.10;;;5.00;1.00;226.50;231333.00;;;;5075419;28;20251;-72
2022/03/24 07:56:34;;;;;;;0.10;0.10;;;5.10;1.00;226.50;231333.00;;;;5074530;28;20599;-72
2022/03/24 07:59:02;;;;;;;0.10;0.10;;;5.30;99.90;226.50;231333.00;;;;5073018;28;20656;-72
2022/03/24 08:01:32;;;;;;;0.10;0.10;;;5.40;99.90;226.50;231333.00;;;;5074775;28;20221;-72
2022/03/24 08:04:03;;;;;;;0.10;0.10;;;5.50;1.00;226.50;231333.00;;;;5067272;28;20182;-72
2022/03/24 08:06:33;;;;;;;0.10;0.10;;;5.60;1.00;226.50;231333.00;;;;5074533;28;20380;-75
2022/03/24 08:09:01;;;;;;;0.10;0.10;;;5.80;1.00;226.50;231333.00;;;;5075031;28;20682;-73
2022/03/24 08:11:30;;;;;;;0.10;0.10;;;5.90;1.00;226.50;231333.00;;;;5074460;28;20209;-74
2022/03/24 08:13:58;;;;;;;0.10;0.10;;;6.10;99.90;226.50;231333.00;;;;5074132;28;20259;-74
2022/03/24 08:16:27;;;;;;;0.10;0.10;;;6.30;1.00;226.50;231333.00;;;;5074429;28;20204;-74
2022/03/24 08:18:57;;;;;;;0.05;0.05;;;6.40;1.00;226.50;231333.00;;;;5073788;28;20189;-73
2022/03/24 08:21:26;;;;;;;0.00;0.00;;;6.50;1.00;226.50;231333.00;;;;5074494;28;20210;-74
2022/03/24 08:23:54;;;;;;;0.10;0.10;;;6.60;1.00;226.50;231333.00;;;;5073840;28;20232;-74
2022/03/24 08:26:22;;;;;;;0.10;0.10;;;6.80;99.90;226.50;231333.00;;;;5073640;28;20217;-74
2022/03/24 08:28:57;;;;;;;0.10;0.10;;;6.80;1.00;226.50;231333.00;;;;5073251;28;20209;-74
2022/03/24 08:31:25;;;;;;;0.10;0.10;;;7.00;99.90;226.50;231333.00;;;;5072437;28;20233;-74
2022/03/24 08:33:53;;;;;;;0.10;0.10;;;7.00;99.90;226.50;231333.00;;;;5072972;28;20194;-74
2022/03/24 08:36:22;;;;;;;0.03;0.03;;;7.10;23.50;226.50;231333.00;;;;5073055;28;20247;-74
2022/03/24 08:38:50;;;;;;;0.10;0.10;;;7.30;99.90;226.50;231333.00;;;;5069922;28;20639;-76
2022/03/24 08:41:20;;;;;;;0.10;0.10;;;7.40;99.90;226.50;231333.00;;;;5073724;28;20278;-73
2022/03/24 08:43:48;;;;;;;0.10;0.10;;;7.60;1.00;226.50;231333.00;;;;5074022;28;20552;-73
2022/03/24 08:46:20;;;;;;;0.10;0.10;;;7.70;99.90;226.50;231333.00;;;;5071710;28;20568;-73
2022/03/24 08:48:48;;;;;;;0.10;0.10;;;7.80;99.90;226.50;231333.00;;;;5073978;28;20369;-75
2022/03/24 08:51:17;;;;;;;0.10;0.10;;;8.00;66.00;226.50;231333.00;;;;5071867;28;20194;-76
2022/03/24 08:53:45;;;;;;;0.00;0.00;;;8.20;1.00;226.50;231333.00;;;;5072664;28;20256;-73
2022/03/24 08:56:13;;;;;;;0.10;0.10;;;8.30;1.00;226.50;231333.00;;;;5072685;28;20582;-73
2022/03/24 08:58:41;;;;;;;0.10;0.10;;;8.50;1.00;226.50;231333.00;;;;5073389;28;20201;-73
2022/03/24 09:01:11;;;;;;;0.10;0.10;;;8.60;1.00;226.50;231333.00;;;;5072386;28;20189;-73
2022/03/24 09:03:41;;;;;;;0.10;0.10;;;8.80;1.00;226.50;231333.00;;;;5063865;28;20197;-72
2022/03/24 09:06:10;;;;;;;0.10;0.10;;;8.90;1.00;226.50;231333.00;;;;5072225;28;20765;-73
2022/03/24 09:08:39;;;;;;;0.08;0.08;;;9.10;1.00;226.50;231333.00;;;;5072885;28;20204;-73
2022/03/24 09:11:08;;;;;;;0.10;0.10;;;9.20;1.00;226.50;231333.00;;;;5065506;28;20212;-74
2022/03/24 09:13:36;;;;;;;0.10;0.10;;;9.40;1.00;226.50;231333.00;;;;5074163;28;20208;-72
2022/03/24 09:16:05;;;;;;;0.05;0.05;;;9.50;1.00;226.50;231333.00;;;;5072271;28;20209;-72
2022/03/24 09:18:34;;;;;;;0.10;0.10;;;9.60;99.90;226.50;231333.00;;;;5075372;28;20216;-73
2022/03/24 09:21:03;;;;;;;0.10;0.10;;;9.80;99.90;226.50;231333.00;;;;5077139;28;20284;-73
2022/03/24 09:23:31;;;;;;;0.10;0.10;;;10.00;99.90;226.50;231333.00;;;;5074439;28;20220;-75
2022/03/24 09:25:59;;;;;;;0.05;0.05;;;10.10;99.90;226.50;231333.00;;;;5076478;28;20219;-75
2022/03/24 09:28:49;;;;;;;0.00;0.00;;;10.20;99.90;226.50;231333.00;;;;5070670;28;20225;-74
2022/03/24 09:31:17;;;;;;;0.10;0.10;;;10.40;99.90;226.50;231333.00;;;;5078100;28;20225;-75
2022/03/24 09:33:46;;;;;;;0.10;0.10;;;10.50;99.90;226.50;231333.00;;;;5072515;28;20614;-75
2022/03/24 09:36:16;;;;;;;0.10;0.10;;;10.60;99.90;226.50;231333.00;;;;5072108;28;20193;-75
2022/03/24 09:38:45;;;;;;;0.00;0.00;;;10.70;99.90;226.50;231333.00;;;;5072345;28;20238;-74
2022/03/24 09:41:14;;;;;;;0.10;0.10;;;10.80;99.90;226.50;231333.00;;;;5071799;28;20197;-74
2022/03/24 09:43:43;;;;;;;0.10;0.10;;;10.80;99.90;226.50;231333.00;;;;5069996;28;20216;-74
2022/03/24 09:46:13;;;;;;;0.10;0.10;;;11.00;99.90;226.50;231333.00;;;;5071744;28;20624;-74
2022/03/24 09:48:41;;;;;;;0.10;0.10;;;11.20;99.90;226.50;231333.00;;;;5072371;28;20196;-75
2022/03/24 09:51:10;;;;;;;0.10;0.10;;;11.30;44.50;226.50;231333.00;;;;5069105;28;20190;-75
2022/03/24 09:53:41;;;;;;;0.10;0.10;;;11.50;29.00;226.50;231333.00;;;;5088107;28;20686;-74
2022/03/24 09:56:10;;;;;;;0.10;0.10;;;11.60;33.70;226.50;231333.00;;;;5071559;28;20198;-74
2022/03/24 09:58:38;;;;;;;0.10;0.10;;;11.70;19.00;226.50;231333.00;;;;5070338;28;20303;-75
2022/03/24 10:01:06;;;;;;;0.10;0.10;;;11.80;7.50;226.50;231333.00;;;;5069622;28;20259;-75
2022/03/24 10:03:34;;;;;;;0.10;0.10;;;12.00;1.00;226.50;231333.00;;;;5071991;28;20197;-75
2022/03/24 10:06:07;;;;;;;0.10;0.10;;;12.10;1.00;226.50;231333.00;;;;5072096;28;20241;-75
2022/03/24 10:08:37;;;;;;;0.10;0.10;;;12.20;1.00;226.50;231333.00;;;;5072358;28;20263;-75
2022/03/24 10:11:09;;;;;;;0.10;0.10;;;12.30;1.00;226.50;231333.00;;;;5072023;28;20220;-75
2022/03/24 10:13:45;;;;;;;0.10;0.10;;;12.40;1.00;226.50;231333.00;;;;5069471;28;20194;-75
2022/03/24 10:16:40;;;;;;;0.10;0.10;;;12.50;1.00;226.50;231333.00;;;;5068278;28;20285;-75
2022/03/24 10:19:10;;;;;;;0.10;0.10;;;12.50;1.00;226.50;231333.00;;;;5065519;28;20197;-75
2022/03/24 10:21:41;;;;;;;0.10;0.10;;;12.70;1.00;226.50;231333.00;;;;5071387;28;20213;-74
2022/03/24 10:24:13;;;;;;;0.10;0.10;;;12.80;1.00;226.50;231333.00;;;;5071540;28;20216;-75
2022/03/24 10:26:46;;;;;;;0.10;0.10;;;13.00;1.00;226.50;231333.00;;;;5070886;28;20263;-75
2022/03/24 10:29:17;;;;;;;0.10;0.10;;;13.10;1.00;226.50;231333.00;;;;5071028;28;20239;-75
2022/03/24 10:31:51;;;;;;;0.10;0.10;;;13.20;1.00;226.50;231333.00;;;;5070846;28;20248;-75
2022/03/24 10:34:30;;;;;;;0.10;0.10;;;13.40;1.00;226.50;231333.00;;;;5071801;28;20224;-76
2022/03/24 10:36:59;;;;;;;0.10;0.10;;;13.50;1.00;226.50;231333.00;;;;5072228;28;20284;-74
2022/03/24 10:39:27;;;;;;;0.10;0.10;;;13.60;1.00;226.50;231333.00;;;;5070792;28;20201;-75
2022/03/24 10:42:15;;;;;;;0.10;0.10;;;13.70;1.00;226.50;231333.00;;;;5069904;28;20221;-74
2022/03/24 10:45:18;;;;;;;0.00;0.00;;;13.90;1.00;226.50;231333.00;;;;5070866;28;20247;-75
2022/03/24 10:47:52;;;;;;;0.10;0.10;;;14.00;1.00;226.50;231333.00;;;;5072008;28;20189;-75
2022/03/24 10:50:27;;;;;;;0.00;0.00;;;14.20;1.00;226.50;231333.00;;;;5071728;28;20194;-76
2022/03/24 10:52:59;;;;;;;0.10;0.10;;;14.30;1.00;226.50;231333.00;;;;5065652;28;20232;-74
2022/03/24 10:55:55;;;;;;;0.10;0.10;;;14.30;1.00;226.50;231333.00;;;;5066475;28;20194;-74
2022/03/24 10:58:32;;;;;;;0.10;0.10;;;14.40;1.00;226.50;231333.00;;;;5070577;28;20255;-74
2022/03/24 11:01:04;;;;;;;0.10;0.10;;;14.50;1.00;226.50;231333.00;;;;5070613;28;20619;-74